createdAt,value
2022-08-21T00:02:32.596Z,17.00
2022-08-21T00:12:30.847Z,16.90
2022-08-21T00:30:22.802Z,16.80
2022-08-21T00:52:17.599Z,16.70
2022-08-21T00:54:47.097Z,16.70
2022-08-21T00:57:25.245Z,16.70
2022-08-21T00:59:57.749Z,16.70
2022-08-21T01:30:19.199Z,16.50
2022-08-21T01:37:51.264Z,16.50
2022-08-21T01:50:20.935Z,16.40
2022-08-21T01:55:19.834Z,16.40
2022-08-21T02:02:46.783Z,16.70
2022-08-21T02:07:52.441Z,16.30
2022-08-21T02:10:23.686Z,16.30
2022-08-21T02:40:30.147Z,16.20
2022-08-21T02:45:30.408Z,16.20
2022-08-21T02:48:05.090Z,16.20
2022-08-21T02:53:04.565Z,16.20
2022-08-21T02:55:38.657Z,16.20
2022-08-21T02:58:08.856Z,16.20
2022-08-21T03:00:38.663Z,16.20
2022-08-21T03:03:06.626Z,16.20
2022-08-21T03:08:10.655Z,16.20
2022-08-21T03:10:41.372Z,16.20
2022-08-21T03:20:38.641Z,16.20
2022-08-21T03:23:12.750Z,16.20
2022-08-21T03:25:49.216Z,16.20
2022-08-21T03:28:20.321Z,16.10
2022-08-21T03:30:51.265Z,16.10
2022-08-21T03:33:23.364Z,16.10
2022-08-21T03:36:05.937Z,16.10
2022-08-21T03:38:36.302Z,16.10
2022-08-21T03:41:05.871Z,16.00
2022-08-21T03:48:34.184Z,16.00
2022-08-21T04:01:01.697Z,16.00
2022-08-21T04:18:29.290Z,15.90
2022-08-21T04:21:00.594Z,15.90
2022-08-21T04:30:59.610Z,15.80
2022-08-21T04:48:25.223Z,15.60
2022-08-21T04:53:38.739Z,15.60
2022-08-21T04:58:47.237Z,15.60
2022-08-21T05:01:18.965Z,15.60
2022-08-21T05:03:50.786Z,15.60
2022-08-21T05:06:19.196Z,15.60
2022-08-21T05:08:50.399Z,15.60
2022-08-21T05:16:36.716Z,15.50
2022-08-21T05:19:06.872Z,15.50
2022-08-21T05:21:38.628Z,15.50
2022-08-21T05:26:43.760Z,15.60
2022-08-21T05:29:18.288Z,15.60
2022-08-21T05:31:49.131Z,15.60
2022-08-21T05:46:46.046Z,16.00
2022-08-21T05:51:44.165Z,16.10
2022-08-21T05:59:09.305Z,16.30
2022-08-21T06:01:37.338Z,16.40
2022-08-21T06:09:02.227Z,16.50
2022-08-21T06:13:59.361Z,16.50
2022-08-21T06:28:55.693Z,16.70
2022-08-21T06:31:25.906Z,16.70
2022-08-21T06:33:55.083Z,16.70
2022-08-21T06:38:53.825Z,16.90
2022-08-21T06:41:26.487Z,17.00
2022-08-21T06:43:56.690Z,17.00
2022-08-21T06:46:27.425Z,17.10
2022-08-21T06:53:53.888Z,17.40
2022-08-21T06:56:22.367Z,17.30
2022-08-21T06:58:50.171Z,17.40
2022-08-21T07:11:21.881Z,17.70
2022-08-21T07:14:12.228Z,17.90
2022-08-21T07:16:57.447Z,18.00
2022-08-21T07:19:25.513Z,18.00
2022-08-21T07:21:58.406Z,18.30
2022-08-21T07:26:57.239Z,18.40
2022-08-21T07:29:25.946Z,18.50
2022-08-21T07:31:53.594Z,18.70
2022-08-21T07:34:22.247Z,18.80
2022-08-21T07:36:50.085Z,18.90
2022-08-21T07:39:18.064Z,18.90
2022-08-21T07:41:45.639Z,19.00
2022-08-21T07:44:13.549Z,19.00
2022-08-21T07:46:41.170Z,19.10
2022-08-21T07:49:08.857Z,19.10
2022-08-21T07:51:36.541Z,19.10
2022-08-21T07:54:04.343Z,19.10
2022-08-21T07:56:32.940Z,19.20
2022-08-21T07:59:00.678Z,19.20
2022-08-21T08:01:28.458Z,19.20
2022-08-21T08:03:57.388Z,19.30
2022-08-21T08:06:25.181Z,19.40
2022-08-21T08:08:53.537Z,19.50
2022-08-21T08:11:21.449Z,19.60
2022-08-21T08:13:52.423Z,19.60
2022-08-21T08:16:20.358Z,19.60
2022-08-21T08:21:16.958Z,19.60
2022-08-21T08:36:19.125Z,19.70
2022-08-21T08:38:49.011Z,19.70
2022-08-21T08:41:20.774Z,19.80
2022-08-21T08:43:55.754Z,19.70
2022-08-21T08:46:37.431Z,19.90
2022-08-21T08:49:17.987Z,20.00
2022-08-21T08:52:03.764Z,20.00
2022-08-21T08:54:46.230Z,20.10
2022-08-21T08:57:23.885Z,20.20
2022-08-21T08:59:59.087Z,20.10
2022-08-21T09:02:31.126Z,20.20
2022-08-21T09:05:00.993Z,20.30
2022-08-21T09:07:34.610Z,20.30
2022-08-21T09:10:11.461Z,20.30
2022-08-21T09:12:45.063Z,20.40
2022-08-21T09:15:17.893Z,20.30
2022-08-21T09:17:57.934Z,20.40
2022-08-21T09:20:37.245Z,20.40
2022-08-21T09:24:03.768Z,20.50
2022-08-21T09:26:39.646Z,20.60
2022-08-21T09:29:11.495Z,20.70
2022-08-21T09:31:41.151Z,20.80
2022-08-21T09:34:11.049Z,21.00
2022-08-21T09:36:38.688Z,21.20
2022-08-21T09:39:07.796Z,21.40
2022-08-21T09:41:37.478Z,21.50
2022-08-21T09:44:06.255Z,21.70
2022-08-21T09:46:33.840Z,21.90
2022-08-21T09:49:04.519Z,22.00
2022-08-21T09:51:37.864Z,22.10
2022-08-21T09:54:08.726Z,21.40
2022-08-21T09:56:58.638Z,22.00
2022-08-21T09:59:36.340Z,21.90
2022-08-21T10:02:32.494Z,21.90
2022-08-21T10:05:16.869Z,21.80
2022-08-21T10:07:44.718Z,21.90
2022-08-21T10:10:17.992Z,21.90
2022-08-21T10:13:13.270Z,22.00
2022-08-21T10:15:59.107Z,22.00
2022-08-21T10:18:48.010Z,22.00
2022-08-21T10:21:34.572Z,22.10
2022-08-21T10:24:30.921Z,22.10
2022-08-21T10:27:04.864Z,22.40
2022-08-21T10:29:41.621Z,22.50
2022-08-21T10:32:26.027Z,22.60
2022-08-21T10:35:08.973Z,22.60
2022-08-21T10:38:06.720Z,22.60
2022-08-21T10:40:50.066Z,22.90
2022-08-21T10:43:51.033Z,23.20
2022-08-21T10:47:00.359Z,23.30
2022-08-21T10:49:46.017Z,23.60
2022-08-21T10:52:34.884Z,23.80
2022-08-21T10:55:11.100Z,23.90
2022-08-21T10:57:48.227Z,23.80
2022-08-21T11:00:21.426Z,23.70
2022-08-21T11:02:59.527Z,23.90
2022-08-21T11:06:10.659Z,23.90
2022-08-21T11:11:22.135Z,23.90
2022-08-21T11:14:03.179Z,23.90
2022-08-21T11:16:46.171Z,23.90
2022-08-21T11:19:31.194Z,23.90
2022-08-21T11:25:04.385Z,23.70
2022-08-21T11:27:55.378Z,23.60
2022-08-21T11:30:30.864Z,23.70
2022-08-21T11:33:34.286Z,23.70
2022-08-21T11:36:16.611Z,23.00
2022-08-21T11:38:52.768Z,23.70
2022-08-21T11:41:41.915Z,23.70
2022-08-21T11:44:19.851Z,23.60
2022-08-21T11:49:42.795Z,23.30
2022-08-21T11:55:25.834Z,23.10
2022-08-21T12:03:07.541Z,22.70
2022-08-21T12:05:42.254Z,22.70
2022-08-21T12:08:36.064Z,22.70
2022-08-21T12:11:19.956Z,22.70
2022-08-21T12:13:57.455Z,22.90
2022-08-21T12:24:29.010Z,23.40
2022-08-21T12:29:31.976Z,23.40
2022-08-21T12:32:04.259Z,23.50
2022-08-21T12:34:55.220Z,23.60
2022-08-21T12:37:46.292Z,23.70
2022-08-21T12:40:26.484Z,23.80
2022-08-21T12:42:59.702Z,23.80
2022-08-21T12:45:55.043Z,23.80
2022-08-21T12:49:04.327Z,23.80
2022-08-21T12:51:56.806Z,24.00
2022-08-21T12:54:33.102Z,24.00
2022-08-21T12:57:03.829Z,24.00
2022-08-21T13:02:04.640Z,24.00
2022-08-21T13:04:41.267Z,24.00
2022-08-21T13:07:12.956Z,24.10
2022-08-21T13:09:52.114Z,24.00
2022-08-21T13:12:22.747Z,24.00
2022-08-21T13:14:52.745Z,24.00
2022-08-21T13:17:23.609Z,24.00
2022-08-21T13:20:00.993Z,24.00
2022-08-21T13:22:34.101Z,24.10
2022-08-21T13:25:07.255Z,24.20
2022-08-21T13:27:35.604Z,24.50
2022-08-21T13:30:14.646Z,24.70
2022-08-21T13:32:46.475Z,24.80
2022-08-21T13:35:22.098Z,24.90
2022-08-21T13:37:53.104Z,24.90
2022-08-21T13:40:47.127Z,25.10
2022-08-21T13:43:21.088Z,25.20
2022-08-21T13:45:53.560Z,25.30
2022-08-21T13:48:24.401Z,25.30
2022-08-21T13:50:53.395Z,25.00
2022-08-21T13:53:28.916Z,24.90
2022-08-21T13:56:00.524Z,24.60
2022-08-21T13:58:42.457Z,24.60
2022-08-21T14:01:36.999Z,24.60
2022-08-21T14:04:53.101Z,24.60
2022-08-21T14:07:28.574Z,24.70
2022-08-21T14:09:57.675Z,24.60
2022-08-21T14:12:41.744Z,25.10
2022-08-21T14:15:11.273Z,25.10
2022-08-21T14:17:40.498Z,25.60
2022-08-21T14:20:10.878Z,26.00
2022-08-21T14:22:42.740Z,26.30
2022-08-21T14:25:20.165Z,26.20
2022-08-21T14:27:57.192Z,27.10
2022-08-21T14:30:36.502Z,28.00
2022-08-21T14:33:08.812Z,28.90
2022-08-21T14:38:14.543Z,30.00
2022-08-21T14:40:43.950Z,29.90
2022-08-21T14:43:12.249Z,29.50
2022-08-21T14:45:42.240Z,28.20
2022-08-21T14:48:10.128Z,28.10
2022-08-21T14:50:38.707Z,27.70
2022-08-21T14:53:11.189Z,27.50
2022-08-21T14:55:59.428Z,27.30
2022-08-21T14:58:27.398Z,26.50
2022-08-21T15:00:57.490Z,26.90
2022-08-21T15:03:26.869Z,27.00
2022-08-21T15:05:54.459Z,27.10
2022-08-21T15:08:22.323Z,27.00
2022-08-21T15:11:10.477Z,26.60
2022-08-21T15:13:37.746Z,26.40
2022-08-21T15:16:05.536Z,26.10
2022-08-21T15:18:33.906Z,26.00
2022-08-21T15:21:01.985Z,26.00
2022-08-21T15:23:30.117Z,25.90
2022-08-21T15:26:02.696Z,25.70
2022-08-21T15:28:31.830Z,25.60
2022-08-21T15:31:02.107Z,25.60
2022-08-21T15:33:30.186Z,25.60
2022-08-21T15:38:27.558Z,25.40
2022-08-21T15:40:55.332Z,25.40
2022-08-21T15:43:30.184Z,25.40
2022-08-21T15:46:02.506Z,25.40
2022-08-21T15:50:58.145Z,25.40
2022-08-21T15:53:25.736Z,25.40
2022-08-21T15:55:54.879Z,25.30
2022-08-21T15:58:23.354Z,25.10
2022-08-21T16:00:52.064Z,25.10
2022-08-21T16:03:22.958Z,24.90
2022-08-21T16:05:53.476Z,24.90
2022-08-21T16:08:22.280Z,24.90
2022-08-21T16:10:50.667Z,24.80
2022-08-21T16:13:30.758Z,24.80
2022-08-21T16:15:58.602Z,24.80
2022-08-21T16:18:27.049Z,24.80
2022-08-21T16:20:57.836Z,24.80
2022-08-21T16:23:25.683Z,24.80
2022-08-21T16:25:53.525Z,24.80
2022-08-21T16:28:22.163Z,24.80
2022-08-21T16:30:51.416Z,24.70
2022-08-21T16:33:25.070Z,24.70
2022-08-21T16:35:53.075Z,24.70
2022-08-21T16:38:21.090Z,24.40
2022-08-21T16:40:49.001Z,24.60
2022-08-21T16:43:17.779Z,24.60
2022-08-21T16:45:46.002Z,24.60
2022-08-21T16:48:14.327Z,24.60
2022-08-21T16:50:42.325Z,24.50
2022-08-21T16:53:11.035Z,24.50
2022-08-21T16:55:39.704Z,24.50
2022-08-21T16:58:25.470Z,24.50
2022-08-21T17:00:57.680Z,24.40
2022-08-21T17:03:35.319Z,24.50
2022-08-21T17:06:04.627Z,24.50
2022-08-21T17:08:33.211Z,24.40
2022-08-21T17:11:01.929Z,24.30
2022-08-21T17:13:30.919Z,24.20
2022-08-21T17:15:58.817Z,24.00
2022-08-21T17:18:27.977Z,24.00
2022-08-21T17:20:55.792Z,23.90
2022-08-21T17:23:23.902Z,23.80
2022-08-21T17:25:53.896Z,23.60
2022-08-21T17:28:25.504Z,23.60
2022-08-21T17:30:57.194Z,23.50
2022-08-21T17:33:27.622Z,23.40
2022-08-21T17:35:55.562Z,23.30
2022-08-21T17:38:23.574Z,23.20
2022-08-21T17:40:55.648Z,23.10
2022-08-21T17:43:24.780Z,23.00
2022-08-21T17:45:53.530Z,22.90
2022-08-21T17:48:22.221Z,22.80
2022-08-21T17:50:53.455Z,22.70
2022-08-21T17:53:22.762Z,22.60
2022-08-21T17:55:51.469Z,22.60
2022-08-21T17:58:19.410Z,22.50
2022-08-21T18:00:49.024Z,22.40
2022-08-21T18:03:20.787Z,22.40
2022-08-21T18:05:50.780Z,22.30
2022-08-21T18:08:18.569Z,22.30
2022-08-21T18:10:48.822Z,22.10
2022-08-21T18:13:24.504Z,22.00
2022-08-21T18:15:54.309Z,22.00
2022-08-21T18:18:22.620Z,21.80
2022-08-21T18:20:50.364Z,21.80
2022-08-21T18:23:18.424Z,21.80
2022-08-21T18:25:53.742Z,21.60
2022-08-21T18:28:23.265Z,21.60
2022-08-21T18:30:54.380Z,21.50
2022-08-21T18:33:22.595Z,21.40
2022-08-21T18:35:50.738Z,21.40
2022-08-21T18:38:21.220Z,21.40
2022-08-21T18:40:55.736Z,21.30
2022-08-21T18:43:24.311Z,21.20
2022-08-21T18:45:52.521Z,21.20
2022-08-21T18:48:21.252Z,21.20
2022-08-21T18:50:54.485Z,21.10
2022-08-21T18:53:27.766Z,21.00
2022-08-21T18:55:57.905Z,21.00
2022-08-21T18:58:35.390Z,20.90
2022-08-21T19:01:04.190Z,20.90
2022-08-21T19:03:34.848Z,20.80
2022-08-21T19:06:02.918Z,20.80
2022-08-21T19:08:30.651Z,20.70
2022-08-21T19:11:01.761Z,20.70
2022-08-21T19:13:30.857Z,20.60
2022-08-21T19:16:02.891Z,20.60
2022-08-21T19:18:37.408Z,20.50
2022-08-21T19:21:06.012Z,20.50
2022-08-21T19:23:35.583Z,20.50
2022-08-21T19:26:06.306Z,20.40
2022-08-21T19:28:41.201Z,20.40
2022-08-21T19:31:24.962Z,20.30
2022-08-21T19:34:03.623Z,20.30
2022-08-21T19:36:32.743Z,20.20
2022-08-21T19:39:01.256Z,20.10
2022-08-21T19:41:38.772Z,20.10
2022-08-21T19:44:11.027Z,20.00
2022-08-21T19:46:44.680Z,20.00
2022-08-21T19:49:16.588Z,20.00
2022-08-21T19:51:47.759Z,19.90
2022-08-21T19:54:24.900Z,19.80
2022-08-21T19:56:57.936Z,19.80
2022-08-21T19:59:28.198Z,19.70
2022-08-21T20:01:56.162Z,19.70
2022-08-21T20:04:23.865Z,19.70
2022-08-21T20:06:53.493Z,19.60
2022-08-21T20:09:21.659Z,19.60
2022-08-21T20:11:52.725Z,19.60
2022-08-21T20:14:26.428Z,19.50
2022-08-21T20:17:04.962Z,19.50
2022-08-21T20:19:35.167Z,19.40
2022-08-21T20:22:04.127Z,19.40
2022-08-21T20:24:34.054Z,19.30
2022-08-21T20:29:52.622Z,19.30
2022-08-21T20:32:22.306Z,19.10
2022-08-21T20:34:53.698Z,19.20
2022-08-21T20:37:35.789Z,19.10
2022-08-21T20:40:11.603Z,19.00
2022-08-21T20:42:44.876Z,19.00
2022-08-21T20:45:22.897Z,19.00
2022-08-21T20:47:52.568Z,18.90
2022-08-21T20:50:26.243Z,18.90
2022-08-21T20:53:22.995Z,18.80
2022-08-21T20:55:52.116Z,18.80
2022-08-21T20:58:25.227Z,18.80
2022-08-21T21:01:01.554Z,18.70
2022-08-21T21:03:45.924Z,18.70
2022-08-21T21:06:40.522Z,19.50
2022-08-21T21:09:11.528Z,18.60
2022-08-21T21:11:57.784Z,18.60
2022-08-21T21:14:38.325Z,18.50
2022-08-21T21:17:17.924Z,18.50
2022-08-21T21:20:38.386Z,18.50
2022-08-21T21:23:24.066Z,18.40
2022-08-21T21:26:02.994Z,18.50
2022-08-21T21:28:48.487Z,18.30
2022-08-21T21:31:18.083Z,17.00
2022-08-21T21:33:48.274Z,18.30
2022-08-21T21:36:32.797Z,18.20
2022-08-21T21:39:12.000Z,18.20
2022-08-21T21:44:32.447Z,18.10
2022-08-21T21:47:24.121Z,18.10
2022-08-21T21:50:21.206Z,17.90
2022-08-21T21:52:54.676Z,17.90
2022-08-21T21:55:35.786Z,17.90
2022-08-21T21:58:24.677Z,17.80
2022-08-21T22:01:13.698Z,17.70
2022-08-21T22:03:45.570Z,17.70
2022-08-21T22:06:36.504Z,17.60
2022-08-21T22:09:29.984Z,17.70
2022-08-21T22:12:14.277Z,17.60
2022-08-21T22:14:44.259Z,17.50
2022-08-21T22:17:18.036Z,17.50
2022-08-21T22:19:46.728Z,17.50
2022-08-21T22:22:20.066Z,17.50
2022-08-21T22:24:59.303Z,17.40
2022-08-21T22:27:32.139Z,16.90
2022-08-21T22:30:02.359Z,17.30
2022-08-21T22:32:45.899Z,17.20
2022-08-21T22:35:21.334Z,17.30
2022-08-21T22:37:55.008Z,17.20
2022-08-21T22:40:31.493Z,17.20
2022-08-21T22:43:02.692Z,17.20
2022-08-21T22:45:32.342Z,17.10
2022-08-21T22:48:06.054Z,17.10
2022-08-21T22:50:39.968Z,17.10
2022-08-21T22:53:09.676Z,17.10
2022-08-21T22:55:43.631Z,17.00
2022-08-21T22:58:13.352Z,17.00
2022-08-21T23:03:25.057Z,17.00
2022-08-21T23:05:53.389Z,17.00
2022-08-21T23:08:24.698Z,16.90
2022-08-21T23:11:14.061Z,16.90
2022-08-21T23:13:45.521Z,16.90
2022-08-21T23:16:47.276Z,16.80
2022-08-21T23:19:37.977Z,16.80
2022-08-21T23:22:23.617Z,16.80
2022-08-21T23:25:03.659Z,16.80
2022-08-21T23:28:03.815Z,16.80
2022-08-21T23:30:40.269Z,16.80
2022-08-21T23:33:17.315Z,16.80
2022-08-21T23:36:11.405Z,16.70
2022-08-21T23:39:14.239Z,16.70
2022-08-21T23:41:53.703Z,16.70
2022-08-21T23:44:25.688Z,16.60
2022-08-21T23:47:11.595Z,16.50
2022-08-21T23:49:53.994Z,16.50
2022-08-21T23:52:34.248Z,16.40
2022-08-21T23:55:23.138Z,16.40
2022-08-21T23:57:58.392Z,16.40
